Time;durP1;ratioP1;P1;durP2;ratioP2;P2;SDS_P1;SDS_P2;PMS_P1;PMS_P2;Temp;Humidity;BMP_temperature;BMP_pressure;BME280_temperature;BME280_humidity;BME280_pressure;Samples;Min_cycle;Max_cycle;Signal;HPM_P1;HPM_P2
2022/02/13 00:00:24;;;;;;;12.80;4.15;;;3.30;99.90;;;;;;5050698;28;20455;-53
2022/02/13 00:02:50;;;;;;;7.72;3.78;;;3.40;99.90;;;;;;5050085;28;20474;-55
2022/02/13 00:05:17;;;;;;;13.70;4.18;;;3.30;99.90;;;;;;5049738;28;20056;-55
2022/02/13 00:07:43;;;;;;;14.05;4.05;;;3.30;99.90;;;;;;5045626;28;20112;-54
2022/02/13 00:10:11;;;;;;;12.38;3.97;;;3.40;99.90;;;;;;5030449;28;20440;-54
2022/02/13 00:12:37;;;;;;;13.63;3.90;;;3.40;99.90;;;;;;5029956;28;20041;-54
2022/02/13 00:15:04;;;;;;;12.77;4.18;;;3.40;99.90;;;;;;5028489;28;20435;-55
2022/02/13 00:17:29;;;;;;;8.88;3.90;;;3.40;99.90;;;;;;5026018;28;20033;-56
2022/02/13 00:19:55;;;;;;;13.55;4.10;;;3.40;99.90;;;;;;5029198;28;20041;-55
2022/02/13 00:22:21;;;;;;;20.48;5.18;;;3.40;99.90;;;;;;5028762;28;20047;-54
2022/02/13 00:24:47;;;;;;;12.00;4.20;;;3.30;99.90;;;;;;5029050;28;20037;-54
2022/02/13 00:27:13;;;;;;;8.38;2.92;;;3.30;99.90;;;;;;5029285;28;20121;-54
2022/02/13 00:29:38;;;;;;;11.93;4.55;;;3.40;99.90;;;;;;5029864;28;20026;-55
2022/02/13 00:32:05;;;;;;;15.00;4.20;;;3.40;99.90;;;;;;5029750;28;20041;-54
2022/02/13 00:34:31;;;;;;;14.15;4.75;;;3.40;99.90;;;;;;5029772;28;20420;-55
2022/02/13 00:36:57;;;;;;;10.90;3.90;;;3.40;99.90;;;;;;5029957;28;20037;-55
2022/02/13 00:39:22;;;;;;;14.20;4.80;;;3.40;99.90;;;;;;5029928;28;20522;-54
2022/02/13 00:41:48;;;;;;;9.27;4.32;;;3.50;99.90;;;;;;5030046;28;20037;-53
2022/02/13 00:44:13;;;;;;;11.88;4.55;;;3.40;99.90;;;;;;5029932;28;20033;-56
2022/02/13 00:46:39;;;;;;;10.38;4.18;;;3.40;99.90;;;;;;5029438;28;20040;-51
2022/02/13 00:49:05;;;;;;;14.38;5.00;;;3.40;99.90;;;;;;5029458;28;20415;-56
2022/02/13 00:51:31;;;;;;;20.55;5.65;;;3.40;99.90;;;;;;5029704;28;20033;-53
2022/02/13 00:53:58;;;;;;;12.82;4.47;;;3.30;99.90;;;;;;5029690;28;20029;-56
2022/02/13 00:56:25;;;;;;;15.93;4.57;;;3.40;99.90;;;;;;5029164;28;20492;-54
2022/02/13 00:58:51;;;;;;;11.85;4.50;;;3.30;99.90;;;;;;5028445;28;20068;-56
2022/02/13 01:01:17;;;;;;;16.00;4.43;;;3.30;99.90;;;;;;5029691;28;20517;-54
2022/02/13 01:03:43;;;;;;;10.90;3.92;;;3.30;99.90;;;;;;5029220;28;20233;-53
2022/02/13 01:06:08;;;;;;;19.90;4.60;;;3.40;99.90;;;;;;5029418;28;20439;-55
2022/02/13 01:08:34;;;;;;;10.45;3.95;;;3.30;99.90;;;;;;5029705;28;20040;-52
2022/02/13 01:11:00;;;;;;;11.35;4.32;;;3.30;99.90;;;;;;5029611;28;20958;-53
2022/02/13 01:13:28;;;;;;;17.15;4.78;;;3.30;99.90;;;;;;5029624;28;20083;-54
2022/02/13 01:15:53;;;;;;;11.85;4.95;;;3.20;99.90;;;;;;5028703;28;20087;-53
2022/02/13 01:18:19;;;;;;;17.50;4.88;;;3.20;99.90;;;;;;5028105;28;20455;-55
2022/02/13 01:20:45;;;;;;;13.07;4.25;;;3.10;99.90;;;;;;5029320;28;20022;-53
2022/02/13 01:23:10;;;;;;;11.68;4.53;;;3.10;99.90;;;;;;5029917;28;20021;-55
2022/02/13 01:25:36;;;;;;;11.45;5.18;;;3.10;99.90;;;;;;5029742;28;20091;-55
2022/02/13 01:28:03;;;;;;;16.17;4.68;;;3.10;99.90;;;;;;5033954;28;20021;-55
2022/02/13 01:30:28;;;;;;;19.55;5.43;;;3.00;99.90;;;;;;5033485;28;20033;-56
2022/02/13 01:32:54;;;;;;;9.70;4.88;;;3.00;99.90;;;;;;5033224;28;20097;-54
2022/02/13 01:35:20;;;;;;;14.43;5.40;;;3.00;99.90;;;;;;5033033;28;20029;-52
2022/02/13 01:37:45;;;;;;;12.50;5.15;;;3.00;99.90;;;;;;5033612;28;20403;-52
2022/02/13 01:40:12;;;;;;;14.23;5.57;;;3.00;99.90;;;;;;5033498;28;20030;-53
2022/02/13 01:42:38;;;;;;;12.50;4.90;;;3.00;99.90;;;;;;5033343;28;20021;-52
2022/02/13 01:45:05;;;;;;;10.27;4.93;;;2.90;99.90;;;;;;5032611;28;20032;-56
2022/02/13 01:47:32;;;;;;;15.20;5.85;;;3.00;99.90;;;;;;5033629;28;20434;-52
2022/02/13 01:49:58;;;;;;;9.82;4.03;;;3.00;99.90;;;;;;5032916;28;20036;-55
2022/02/13 01:52:25;;;;;;;10.95;4.70;;;3.10;99.90;;;;;;5032825;28;20042;-53
2022/02/13 01:54:51;;;;;;;13.40;4.55;;;3.10;99.90;;;;;;5032614;28;20107;-54
2022/02/13 01:57:16;;;;;;;11.45;5.13;;;3.10;99.90;;;;;;5032559;28;20029;-53
2022/02/13 01:59:42;;;;;;;14.88;5.25;;;3.00;99.90;;;;;;5029597;28;20108;-52
2022/02/13 02:02:08;;;;;;;13.10;5.43;;;3.00;99.90;;;;;;5030523;28;20042;-51
2022/02/13 02:04:34;;;;;;;13.73;5.32;;;3.00;99.90;;;;;;5031093;28;20041;-53
2022/02/13 02:07:01;;;;;;;17.08;5.38;;;2.90;99.90;;;;;;5030462;28;20490;-51
2022/02/13 02:09:27;;;;;;;14.13;4.78;;;2.90;99.90;;;;;;5031616;28;20100;-51
2022/02/13 02:11:53;;;;;;;20.70;5.57;;;3.00;99.90;;;;;;5031910;28;20141;-51
2022/02/13 02:14:18;;;;;;;12.02;5.72;;;3.00;99.90;;;;;;5032098;28;20519;-53
2022/02/13 02:16:44;;;;;;;14.73;5.60;;;3.00;99.90;;;;;;5031536;28;20301;-51
2022/02/13 02:19:11;;;;;;;13.10;4.60;;;3.00;99.90;;;;;;5032814;28;20029;-51
2022/02/13 02:21:41;;;;;;;10.57;4.80;;;2.90;99.90;;;;;;5032487;28;20022;-51
2022/02/13 02:24:11;;;;;;;8.07;4.63;;;2.90;99.90;;;;;;5032716;28;20088;-55
2022/02/13 02:26:37;;;;;;;16.90;5.32;;;2.90;99.90;;;;;;5031450;28;20185;-53
2022/02/13 02:29:02;;;;;;;14.50;5.30;;;2.90;99.90;;;;;;5032471;28;20032;-55
2022/02/13 02:31:28;;;;;;;17.67;5.78;;;2.90;99.90;;;;;;5031978;28;20483;-54
2022/02/13 02:33:54;;;;;;;12.25;5.93;;;3.00;99.90;;;;;;5032314;28;20029;-54
2022/02/13 02:36:19;;;;;;;13.40;4.90;;;3.00;99.90;;;;;;5031459;28;20109;-52
2022/02/13 02:38:46;;;;;;;14.50;4.78;;;2.90;99.90;;;;;;5030778;28;20533;-51
2022/02/13 02:41:13;;;;;;;13.80;4.55;;;2.90;99.90;;;;;;5032207;28;20036;-53
2022/02/13 02:43:38;;;;;;;11.70;5.45;;;2.90;99.90;;;;;;5031597;28;20030;-54
2022/02/13 02:46:04;;;;;;;10.18;4.93;;;2.90;99.90;;;;;;5030346;28;20168;-52
2022/02/13 02:48:31;;;;;;;16.25;5.13;;;2.90;99.90;;;;;;5031887;28;20026;-53
2022/02/13 02:50:56;;;;;;;10.45;5.13;;;2.90;99.90;;;;;;5031780;28;20044;-52
2022/02/13 02:53:22;;;;;;;14.07;5.45;;;2.90;99.90;;;;;;5031674;28;20100;-55
2022/02/13 02:55:47;;;;;;;15.35;5.65;;;2.90;99.90;;;;;;5031320;28;20030;-52
2022/02/13 02:58:13;;;;;;;15.65;5.30;;;2.90;99.90;;;;;;5031638;28;20037;-54
2022/02/13 03:00:39;;;;;;;13.98;4.47;;;2.90;99.90;;;;;;5031729;28;20034;-51
2022/02/13 03:03:04;;;;;;;18.13;5.70;;;2.90;99.90;;;;;;5031561;28;20044;-51
2022/02/13 03:05:31;;;;;;;13.15;5.35;;;2.80;99.90;;;;;;5030817;28;20038;-52
2022/02/13 03:07:57;;;;;;;15.25;5.28;;;2.80;99.90;;;;;;5031415;28;20026;-51
2022/02/13 03:10:22;;;;;;;15.10;5.35;;;2.80;99.90;;;;;;5031212;28;20459;-51
2022/02/13 03:12:48;;;;;;;12.05;5.95;;;2.80;99.90;;;;;;5030779;28;20029;-52
2022/02/13 03:15:14;;;;;;;13.93;5.60;;;2.90;99.90;;;;;;5030550;28;20049;-54
2022/02/13 03:17:39;;;;;;;14.05;5.15;;;2.80;99.90;;;;;;5031540;28;20399;-54
2022/02/13 03:20:05;;;;;;;16.35;5.25;;;2.80;99.90;;;;;;5031499;28;20496;-52
2022/02/13 03:22:31;;;;;;;19.08;5.50;;;2.90;99.90;;;;;;5031173;28;20103;-52
2022/02/13 03:24:59;;;;;;;16.63;5.38;;;2.90;99.90;;;;;;5030770;28;20025;-55
2022/02/13 03:27:26;;;;;;;13.25;4.97;;;2.90;99.90;;;;;;5030729;28;20035;-54
2022/02/13 03:29:52;;;;;;;13.55;5.13;;;2.90;99.90;;;;;;5031082;28;20415;-55
2022/02/13 03:32:18;;;;;;;12.10;5.28;;;2.90;99.90;;;;;;5031037;28;20025;-55
2022/02/13 03:34:44;;;;;;;17.17;5.72;;;2.90;99.90;;;;;;5030741;28;20099;-55
2022/02/13 03:37:09;;;;;;;12.75;5.25;;;2.90;99.90;;;;;;5030473;28;20037;-51
2022/02/13 03:39:35;;;;;;;15.60;5.32;;;2.90;99.90;;;;;;5030698;28;20041;-53
2022/02/13 03:42:01;;;;;;;17.55;6.35;;;2.90;99.90;;;;;;5030714;28;20754;-53
2022/02/13 03:44:26;;;;;;;20.45;5.22;;;2.90;99.90;;;;;;5030556;28;20096;-55
2022/02/13 03:46:53;;;;;;;19.92;6.65;;;2.90;99.90;;;;;;5028862;28;20037;-55
2022/02/13 03:49:19;;;;;;;13.45;5.40;;;2.90;99.90;;;;;;5030486;28;20026;-53
2022/02/13 03:51:45;;;;;;;13.52;5.45;;;2.80;99.90;;;;;;5030441;28;20042;-54
2022/02/13 03:54:10;;;;;;;16.50;5.82;;;2.80;99.90;;;;;;5030711;28;20026;-52
2022/02/13 03:56:36;;;;;;;14.18;5.63;;;2.80;99.90;;;;;;5029822;28;20037;-51
2022/02/13 03:59:02;;;;;;;11.68;5.00;;;2.80;99.90;;;;;;5030653;28;20560;-52
2022/02/13 04:01:28;;;;;;;14.63;5.53;;;2.80;99.90;;;;;;5030227;28;20414;-53
2022/02/13 04:03:54;;;;;;;16.52;5.75;;;2.80;99.90;;;;;;5030660;28;20124;-50
2022/02/13 04:06:20;;;;;;;10.88;4.95;;;2.80;99.90;;;;;;5029827;28;20113;-50
2022/02/13 04:08:45;;;;;;;12.77;5.43;;;2.90;99.90;;;;;;5030269;28;20390;-51
2022/02/13 04:11:11;;;;;;;14.13;5.47;;;2.90;99.90;;;;;;5030236;28;20033;-52
2022/02/13 04:13:37;;;;;;;16.40;5.82;;;2.90;99.90;;;;;;5030798;28;20030;-54
2022/02/13 04:16:02;;;;;;;11.20;4.93;;;2.80;99.90;;;;;;5029793;28;20029;-53
2022/02/13 04:18:28;;;;;;;13.02;5.80;;;2.80;99.90;;;;;;5030424;28;20038;-55
2022/02/13 04:20:54;;;;;;;17.38;6.82;;;2.80;99.90;;;;;;5030376;28;20055;-53
2022/02/13 04:23:20;;;;;;;12.98;5.82;;;2.80;99.90;;;;;;5029993;28;20511;-52
2022/02/13 04:25:45;;;;;;;15.90;5.97;;;2.80;99.90;;;;;;5027930;28;20049;-52
2022/02/13 04:28:11;;;;;;;14.70;5.68;;;2.90;99.90;;;;;;5030324;28;20032;-51
2022/02/13 04:30:37;;;;;;;13.98;5.90;;;2.80;99.90;;;;;;5030283;28;20079;-52
2022/02/13 04:33:02;;;;;;;16.85;6.00;;;2.80;99.90;;;;;;5029998;28;20021;-50
2022/02/13 04:35:28;;;;;;;9.38;5.15;;;2.80;99.90;;;;;;5029612;28;20029;-53
2022/02/13 04:37:55;;;;;;;14.98;6.28;;;2.70;99.90;;;;;;5029628;28;20120;-51
2022/02/13 04:40:21;;;;;;;10.88;5.78;;;2.70;99.90;;;;;;5030238;28;20037;-54
2022/02/13 04:42:47;;;;;;;16.40;6.07;;;2.70;99.90;;;;;;5029786;28;20505;-51
2022/02/13 04:45:13;;;;;;;20.65;5.55;;;2.70;99.90;;;;;;5029602;28;20025;-54
2022/02/13 04:47:40;;;;;;;21.23;6.18;;;2.70;99.90;;;;;;5029899;28;20534;-53
2022/02/13 04:50:06;;;;;;;17.10;6.88;;;2.70;99.90;;;;;;5029819;28;20430;-53
2022/02/13 04:52:32;;;;;;;14.50;6.22;;;2.70;99.90;;;;;;5029990;28;20036;-55
2022/02/13 04:54:57;;;;;;;12.73;5.65;;;2.70;99.90;;;;;;5029266;28;20026;-53
2022/02/13 04:57:23;;;;;;;20.70;7.03;;;2.60;99.90;;;;;;5029768;28;20094;-51
2022/02/13 04:59:49;;;;;;;15.15;5.80;;;2.60;99.90;;;;;;5029446;28;20037;-52
2022/02/13 05:02:15;;;;;;;17.95;5.82;;;2.60;99.90;;;;;;5029473;28;20033;-50
2022/02/13 05:04:40;;;;;;;13.65;5.95;;;2.60;99.90;;;;;;5029722;28;20026;-57
2022/02/13 05:07:06;;;;;;;16.05;6.22;;;2.50;99.90;;;;;;5028989;28;20038;-49
2022/02/13 05:09:32;;;;;;;13.25;5.78;;;2.50;99.90;;;;;;5029027;28;20068;-51
2022/02/13 05:11:58;;;;;;;11.98;6.05;;;2.50;99.90;;;;;;5029444;28;20108;-49
2022/02/13 05:14:24;;;;;;;17.48;6.80;;;2.50;99.90;;;;;;5029666;28;20100;-48
2022/02/13 05:16:50;;;;;;;15.98;6.07;;;2.50;99.90;;;;;;5028637;28;20029;-50
2022/02/13 05:19:16;;;;;;;13.77;5.78;;;2.50;99.90;;;;;;5029929;28;20160;-49
2022/02/13 05:21:42;;;;;;;12.48;5.60;;;2.50;99.90;;;;;;5028983;28;20519;-50
2022/02/13 05:24:08;;;;;;;15.95;6.28;;;2.50;99.90;;;;;;5029207;28;20029;-53
2022/02/13 05:26:35;;;;;;;17.60;6.35;;;2.50;99.90;;;;;;5026883;28;20033;-50
2022/02/13 05:29:00;;;;;;;13.88;6.03;;;2.40;99.90;;;;;;5009153;28;20092;-51
2022/02/13 05:31:30;;;;;;;18.65;6.70;;;2.40;99.90;;;;;;5010206;28;20034;-52
2022/02/13 05:33:57;;;;;;;14.00;5.88;;;2.50;99.90;;;;;;5029036;28;20091;-53
2022/02/13 05:36:23;;;;;;;13.50;5.95;;;2.50;99.90;;;;;;5028574;28;20511;-51
2022/02/13 05:38:49;;;;;;;17.95;6.63;;;2.50;99.90;;;;;;5029352;28;20048;-50
2022/02/13 05:41:14;;;;;;;13.05;5.50;;;2.50;99.90;;;;;;5029139;28;20459;-50
2022/02/13 05:43:40;;;;;;;13.85;5.88;;;2.40;99.90;;;;;;5029085;28;20034;-53
2022/02/13 05:46:06;;;;;;;15.32;6.10;;;2.40;99.90;;;;;;5028543;28;20034;-53
2022/02/13 05:48:32;;;;;;;14.77;6.53;;;2.40;99.90;;;;;;5029198;28;20036;-49
2022/02/13 05:50:59;;;;;;;18.75;5.90;;;2.40;99.90;;;;;;5028681;28;20088;-53
2022/02/13 05:53:24;;;;;;;15.00;6.65;;;2.50;99.90;;;;;;5028987;28;20040;-52
2022/02/13 05:55:50;;;;;;;18.15;6.93;;;2.50;99.90;;;;;;5028345;28;20080;-52
2022/02/13 05:58:16;;;;;;;15.02;6.75;;;2.50;99.90;;;;;;5029269;28;20045;-52
2022/02/13 06:00:42;;;;;;;19.02;5.65;;;2.50;99.90;;;;;;5028595;28;20624;-49
2022/02/13 06:03:08;;;;;;;17.70;7.30;;;2.50;99.90;;;;;;5029121;28;20038;-52
2022/02/13 06:05:34;;;;;;;16.63;6.57;;;2.60;99.90;;;;;;5028079;28;20045;-49
2022/02/13 06:07:59;;;;;;;13.93;5.53;;;2.60;99.90;;;;;;5028830;28;20053;-49
2022/02/13 06:10:25;;;;;;;16.40;5.53;;;2.50;99.90;;;;;;5028967;28;20032;-50
2022/02/13 06:12:50;;;;;;;17.25;6.57;;;2.60;99.90;;;;;;5031623;28;20066;-50
2022/02/13 06:15:16;;;;;;;12.00;6.15;;;2.50;99.90;;;;;;5032486;28;20468;-53
2022/02/13 06:17:42;;;;;;;18.83;6.85;;;2.50;99.90;;;;;;5032593;28;20091;-51
2022/02/13 06:20:08;;;;;;;12.18;6.25;;;2.50;99.90;;;;;;5032432;28;20064;-52
2022/02/13 06:22:34;;;;;;;11.68;5.95;;;2.50;99.90;;;;;;5032369;28;20570;-49
2022/02/13 06:25:00;;;;;;;13.50;6.10;;;2.50;99.90;;;;;;5031640;28;20109;-49
2022/02/13 06:27:26;;;;;;;16.13;7.03;;;2.40;99.90;;;;;;5032383;28;20029;-49
2022/02/13 06:29:51;;;;;;;17.63;6.60;;;2.40;99.90;;;;;;5032473;28;20026;-52
2022/02/13 06:32:17;;;;;;;14.27;6.82;;;2.40;99.90;;;;;;5032415;28;20091;-52
2022/02/13 06:34:43;;;;;;;16.00;5.82;;;2.40;99.90;;;;;;5032176;28;20025;-52
2022/02/13 06:37:08;;;;;;;14.98;6.32;;;2.40;99.90;;;;;;5030345;28;20117;-52
2022/02/13 06:39:35;;;;;;;14.18;5.88;;;2.40;99.90;;;;;;5032215;28;20583;-50
2022/02/13 06:42:01;;;;;;;17.45;6.68;;;2.40;99.90;;;;;;5031764;28;20051;-50
2022/02/13 06:44:27;;;;;;;20.30;6.30;;;2.50;99.90;;;;;;5030505;28;20449;-50
2022/02/13 06:46:52;;;;;;;16.83;6.28;;;2.60;99.90;;;;;;5031246;28;20061;-54
2022/02/13 06:49:18;;;;;;;14.88;6.82;;;2.50;99.90;;;;;;5032213;28;20042;-53
2022/02/13 06:51:44;;;;;;;17.67;6.32;;;2.50;99.90;;;;;;5031028;28;20072;-53
2022/02/13 06:54:09;;;;;;;15.93;6.97;;;2.50;99.90;;;;;;5032284;28;20040;-51
2022/02/13 06:56:35;;;;;;;17.33;7.15;;;2.50;99.90;;;;;;5030953;28;20026;-54
2022/02/13 06:59:02;;;;;;;25.00;7.60;;;2.50;99.90;;;;;;5031751;28;20037;-54
2022/02/13 07:01:27;;;;;;;13.35;6.50;;;2.40;99.90;;;;;;5030109;28;20084;-52
2022/02/13 07:03:53;;;;;;;18.95;7.28;;;2.30;99.90;;;;;;5029892;28;20319;-53
2022/02/13 07:06:18;;;;;;;16.23;6.05;;;2.30;99.90;;;;;;5029463;28;20037;-50
2022/02/13 07:08:44;;;;;;;17.15;7.20;;;2.30;99.90;;;;;;5031037;28;20147;-51
2022/02/13 07:11:10;;;;;;;15.32;6.60;;;2.30;99.90;;;;;;5031764;28;20483;-50
2022/02/13 07:13:35;;;;;;;17.50;6.20;;;2.30;99.90;;;;;;5031607;28;20044;-51
2022/02/13 07:16:01;;;;;;;20.17;6.15;;;2.40;99.90;;;;;;5029983;28;20108;-54
2022/02/13 07:18:26;;;;;;;14.95;5.78;;;2.30;99.90;;;;;;5031145;28;20040;-54
2022/02/13 07:20:52;;;;;;;12.73;6.25;;;2.40;99.90;;;;;;5031093;28;20040;-50
2022/02/13 07:23:19;;;;;;;12.15;6.20;;;2.50;99.90;;;;;;5030667;28;20511;-51
2022/02/13 07:25:44;;;;;;;16.70;6.00;;;2.50;99.90;;;;;;5030070;28;20034;-55
2022/02/13 07:30:55;;;;;;;11.23;5.88;;;2.50;99.90;;;;;;5031040;28;20032;-52
2022/02/13 07:33:20;;;;;;;12.45;5.70;;;2.50;99.90;;;;;;5030881;28;20034;-52
2022/02/13 07:35:46;;;;;;;12.70;6.65;;;2.50;99.90;;;;;;5030041;28;20029;-51
2022/02/13 07:38:12;;;;;;;13.15;6.20;;;2.50;99.90;;;;;;5031128;28;20098;-54
2022/02/13 07:40:38;;;;;;;21.02;6.20;;;2.60;99.90;;;;;;5030802;28;20033;-55
2022/02/13 07:43:04;;;;;;;18.42;6.47;;;2.60;99.90;;;;;;5030973;28;20033;-51
2022/02/13 07:45:30;;;;;;;12.27;6.03;;;2.60;99.90;;;;;;5029958;28;20108;-52
2022/02/13 07:47:55;;;;;;;11.30;5.38;;;2.60;99.90;;;;;;5031240;28;20057;-52
2022/02/13 07:50:21;;;;;;;12.57;5.78;;;2.70;99.90;;;;;;5030576;28;20037;-55
2022/02/13 07:52:47;;;;;;;12.40;5.65;;;2.70;99.90;;;;;;5031015;28;20041;-52
2022/02/13 07:55:14;;;;;;;17.15;5.22;;;2.70;99.90;;;;;;5030046;28;20049;-55
2022/02/13 07:57:41;;;;;;;16.65;6.20;;;2.70;99.90;;;;;;5030585;28;20033;-50
2022/02/13 08:00:09;;;;;;;16.20;6.40;;;2.70;99.90;;;;;;5029063;28;20038;-55
2022/02/13 08:02:36;;;;;;;14.13;5.72;;;2.70;99.90;;;;;;5030193;28;20766;-50
2022/02/13 08:05:03;;;;;;;17.30;6.45;;;2.70;99.90;;;;;;5030177;28;20111;-55
2022/02/13 08:07:28;;;;;;;17.55;5.65;;;2.80;99.90;;;;;;5030768;28;20391;-51
2022/02/13 08:09:54;;;;;;;18.27;5.65;;;2.90;99.90;;;;;;5030695;28;20030;-52
2022/02/13 08:12:20;;;;;;;14.98;5.85;;;2.90;99.90;;;;;;5026694;28;20034;-55
2022/02/13 08:14:48;;;;;;;20.10;6.07;;;2.90;99.90;;;;;;5031498;28;20029;-53
2022/02/13 08:17:13;;;;;;;12.65;5.45;;;3.00;99.90;;;;;;5022910;28;20080;-54
2022/02/13 08:19:39;;;;;;;13.20;5.75;;;3.00;99.90;;;;;;5028765;28;20040;-52
2022/02/13 08:22:06;;;;;;;12.52;5.78;;;3.10;99.90;;;;;;5024580;28;20026;-52
2022/02/13 08:24:33;;;;;;;12.82;5.32;;;3.20;99.90;;;;;;5024792;28;20037;-54
2022/02/13 08:26:59;;;;;;;13.00;5.47;;;3.20;99.90;;;;;;5021158;28;20410;-52
2022/02/13 08:29:25;;;;;;;12.98;5.22;;;3.30;99.90;;;;;;5029101;28;20033;-51
2022/02/13 08:31:51;;;;;;;11.63;4.97;;;3.30;99.90;;;;;;5016430;28;20026;-51
2022/02/13 08:34:17;;;;;;;19.17;5.40;;;3.40;99.90;;;;;;5024110;28;20029;-49
2022/02/13 08:36:42;;;;;;;16.50;5.13;;;3.70;99.90;;;;;;5025281;28;20025;-54
2022/02/13 08:39:08;;;;;;;11.98;5.70;;;3.80;99.90;;;;;;5035115;28;20083;-52
2022/02/13 08:41:35;;;;;;;13.40;5.40;;;3.80;99.90;;;;;;5022440;28;20124;-50
2022/02/13 08:44:01;;;;;;;14.80;5.63;;;3.80;99.90;;;;;;5017017;28;20037;-52
2022/02/13 08:46:27;;;;;;;15.20;5.65;;;3.90;99.90;;;;;;5024742;28;20037;-50
2022/02/13 08:48:52;;;;;;;12.13;5.57;;;4.00;99.90;;;;;;5018694;28;20101;-50
2022/02/13 08:51:18;;;;;;;12.85;5.22;;;4.00;99.90;;;;;;5017044;28;20125;-56
2022/02/13 08:53:44;;;;;;;15.48;5.55;;;4.10;99.90;;;;;;5026839;28;20423;-54
2022/02/13 08:56:09;;;;;;;11.80;5.18;;;4.20;99.90;;;;;;5023835;28;20030;-54
2022/02/13 08:58:35;;;;;;;14.35;4.88;;;4.30;99.90;;;;;;5025384;28;20033;-55
2022/02/13 09:01:01;;;;;;;17.35;5.35;;;4.40;99.90;;;;;;5025643;28;20403;-54
2022/02/13 09:03:27;;;;;;;12.95;5.28;;;4.40;99.90;;;;;;5024288;28;20065;-54
2022/02/13 09:05:54;;;;;;;16.77;5.30;;;4.40;99.90;;;;;;5028031;28;20037;-54
2022/02/13 09:08:19;;;;;;;14.48;5.13;;;4.50;99.90;;;;;;5018104;28;20026;-54
2022/02/13 09:10:45;;;;;;;14.48;5.30;;;4.60;99.90;;;;;;5025428;28;20137;-55
2022/02/13 09:13:11;;;;;;;12.13;5.65;;;4.70;99.90;;;;;;5020798;28;20102;-51
2022/02/13 09:15:38;;;;;;;17.65;5.45;;;4.80;99.90;;;;;;5027298;28;20108;-54
2022/02/13 09:18:04;;;;;;;12.23;5.85;;;4.80;99.90;;;;;;5016984;28;20235;-51
2022/02/13 09:20:30;;;;;;;17.23;6.10;;;4.80;99.90;;;;;;5024719;28;20018;-55
2022/02/13 09:22:55;;;;;;;17.50;5.85;;;4.90;99.90;;;;;;5035173;28;20025;-50
2022/02/13 09:25:21;;;;;;;9.80;4.50;;;5.00;99.90;;;;;;5021153;28;20805;-54
2022/02/13 09:27:47;;;;;;;16.80;5.35;;;5.00;99.90;;;;;;5019106;28;20524;-51
2022/02/13 09:30:13;;;;;;;14.10;5.82;;;5.10;99.90;;;;;;5025142;28;20026;-55
2022/02/13 09:32:40;;;;;;;15.88;4.72;;;5.10;99.90;;;;;;5019309;28;20414;-56
2022/02/13 09:35:08;;;;;;;9.48;5.28;;;5.30;99.90;;;;;;5024832;28;20094;-54
2022/02/13 09:37:33;;;;;;;14.43;5.32;;;5.40;99.90;;;;;;5028577;28;20056;-56
2022/02/13 09:40:00;;;;;;;16.85;5.78;;;5.40;99.90;;;;;;5028501;28;20335;-50
2022/02/13 09:42:27;;;;;;;13.02;4.80;;;5.50;99.90;;;;;;5028538;28;20022;-54
2022/02/13 09:44:52;;;;;;;11.45;5.03;;;5.50;99.90;;;;;;5038937;28;20033;-53
2022/02/13 09:47:20;;;;;;;10.60;4.70;;;5.60;99.90;;;;;;5030378;28;20037;-54
2022/02/13 09:49:46;;;;;;;8.05;4.32;;;5.70;99.90;;;;;;5032236;28;20067;-54
2022/02/13 09:52:13;;;;;;;9.10;5.18;;;5.60;99.90;;;;;;5036861;28;20540;-51
2022/02/13 09:54:39;;;;;;;8.90;4.22;;;5.60;99.90;;;;;;5032451;28;20033;-51
2022/02/13 09:59:56;;;;;;;8.00;4.32;;;5.60;99.90;;;;;;5028608;28;20513;-51
2022/02/13 10:02:40;;;;;;;9.85;4.88;;;5.70;99.90;;;;;;5027134;28;20030;-55
2022/02/13 10:05:11;;;;;;;11.07;4.15;;;5.70;99.90;;;;;;5030851;28;20017;-49
2022/02/13 10:07:39;;;;;;;10.48;4.07;;;5.70;99.90;;;;;;5031705;28;20499;-56
2022/02/13 10:10:08;;;;;;;11.00;5.07;;;5.70;99.90;;;;;;5030912;28;20340;-48
2022/02/13 10:12:42;;;;;;;9.55;4.80;;;5.80;99.90;;;;;;5016566;28;20036;-60
2022/02/13 10:15:30;;;;;;;10.82;4.72;;;5.90;99.90;;;;;;5017233;28;20283;-59
2022/02/13 10:18:06;;;;;;;11.70;5.22;;;5.90;99.90;;;;;;5011920;28;20041;-57
2022/02/13 10:20:42;;;;;;;22.73;5.50;;;5.90;99.90;;;;;;5027653;28;20289;-60
2022/02/13 10:23:15;;;;;;;13.25;5.30;;;5.90;99.90;;;;;;5032485;28;20044;-58
2022/02/13 10:25:42;;;;;;;14.38;5.13;;;5.90;99.90;;;;;;5016865;28;20132;-59
2022/02/13 10:28:16;;;;;;;15.90;4.93;;;5.90;99.90;;;;;;5012784;28;20060;-59
2022/02/13 10:30:46;;;;;;;11.75;5.05;;;6.00;99.90;;;;;;5013581;28;20036;-59
2022/02/13 10:33:26;;;;;;;10.35;4.63;;;6.00;99.90;;;;;;5014299;28;20025;-61
2022/02/13 10:36:12;;;;;;;14.18;5.20;;;6.10;99.90;;;;;;5017948;28;20061;-59
2022/02/13 10:38:40;;;;;;;11.00;5.63;;;6.10;99.90;;;;;;5020722;28;20036;-59
2022/02/13 10:41:13;;;;;;;10.88;4.93;;;6.10;99.90;;;;;;5012984;28;20499;-59
2022/02/13 10:43:59;;;;;;;13.32;5.50;;;6.10;99.90;;;;;;5015878;28;20057;-51
2022/02/13 10:46:30;;;;;;;14.38;5.22;;;6.10;99.90;;;;;;5014936;28;20654;-60
2022/02/13 10:48:56;;;;;;;15.13;5.50;;;6.20;99.90;;;;;;5012782;28;20112;-59
2022/02/13 10:51:22;;;;;;;11.82;5.22;;;6.20;99.90;;;;;;5017315;28;20459;-60
2022/02/13 10:53:49;;;;;;;12.48;5.85;;;6.10;99.90;;;;;;5024442;28;20041;-60
2022/02/13 10:56:14;;;;;;;10.40;5.07;;;6.10;99.90;;;;;;5011755;28;20049;-60
2022/02/13 10:58:40;;;;;;;13.50;6.07;;;6.00;99.90;;;;;;5011264;28;20048;-60
2022/02/13 11:01:07;;;;;;;10.73;5.40;;;6.10;99.90;;;;;;5011163;28;20137;-61
2022/02/13 11:03:34;;;;;;;11.00;5.28;;;6.10;99.90;;;;;;5026028;28;20696;-61
2022/02/13 11:06:02;;;;;;;11.85;5.78;;;6.20;99.90;;;;;;5026357;28;20585;-61
2022/02/13 11:08:53;;;;;;;13.02;5.63;;;6.30;99.90;;;;;;5017920;28;20119;-61
2022/02/13 11:11:19;;;;;;;10.82;5.30;;;6.40;99.90;;;;;;5021716;28;20030;-60
2022/02/13 11:13:45;;;;;;;12.60;5.40;;;6.40;99.90;;;;;;5015222;28;20049;-59
2022/02/13 11:16:29;;;;;;;12.80;5.38;;;6.40;99.90;;;;;;5024516;28;20391;-62
2022/02/13 11:18:58;;;;;;;11.57;5.18;;;6.50;99.90;;;;;;5011360;28;20040;-58
2022/02/13 11:21:29;;;;;;;12.27;4.90;;;6.40;99.90;;;;;;5020289;28;20045;-62
2022/02/13 11:23:56;;;;;;;11.57;5.90;;;6.60;99.90;;;;;;5023220;28;20112;-62
2022/02/13 11:26:40;;;;;;;10.50;5.40;;;6.70;99.90;;;;;;5022656;28;20022;-61
2022/02/13 11:29:06;;;;;;;9.70;4.90;;;6.90;99.90;;;;;;5023707;28;20025;-64
2022/02/13 11:31:40;;;;;;;13.23;5.68;;;6.90;99.90;;;;;;5025140;28;20115;-60
2022/02/13 11:34:14;;;;;;;13.00;5.63;;;7.00;99.90;;;;;;5026164;28;20071;-61
2022/02/13 11:36:51;;;;;;;9.45;5.03;;;6.90;99.90;;;;;;5023156;28;20121;-62
2022/02/13 11:39:42;;;;;;;12.30;5.50;;;7.10;99.90;;;;;;5029987;28;20017;-62
2022/02/13 11:42:15;;;;;;;13.68;6.03;;;7.00;99.90;;;;;;5022746;28;20031;-51
2022/02/13 11:44:41;;;;;;;10.70;5.90;;;7.10;99.90;;;;;;5032498;28;20033;-52
2022/02/13 11:47:15;;;;;;;16.90;5.75;;;7.40;99.90;;;;;;5022674;28;20021;-51
2022/02/13 11:50:11;;;;;;;13.88;5.60;;;7.50;99.90;;;;;;5117791;22;20065;-62
2022/02/13 11:52:58;;;;;;;12.85;5.85;;;7.40;99.90;;;;;;5061890;28;20052;-57
2022/02/13 11:55:27;;;;;;;12.63;5.95;;;7.70;99.90;;;;;;5063574;28;20036;-58
2022/02/13 11:58:01;;;;;;;11.68;5.78;;;7.80;99.90;;;;;;5064785;28;20029;-60
2022/02/13 12:00:45;;;;;;;11.48;5.25;;;7.90;99.90;;;;;;5063393;28;20024;-58
2022/02/13 12:03:17;;;;;;;12.50;5.07;;;8.10;99.90;;;;;;5061735;28;20430;-56
2022/02/13 12:05:43;;;;;;;17.23;6.03;;;7.90;99.90;;;;;;5063101;28;20520;-56
2022/02/13 12:08:09;;;;;;;11.85;5.20;;;7.90;99.90;;;;;;5060352;28;20028;-52
2022/02/13 12:10:37;;;;;;;13.43;6.63;;;8.20;99.90;;;;;;5059247;28;20367;-57
2022/02/13 12:13:08;;;;;;;12.88;5.72;;;8.80;99.90;;;;;;5057629;28;20033;-56
2022/02/13 12:15:35;;;;;;;13.93;5.57;;;9.10;97.50;;;;;;5062374;28;20028;-57
2022/02/13 12:18:10;;;;;;;12.85;5.15;;;8.70;97.50;;;;;;5059531;28;20043;-55
2022/02/13 12:20:36;;;;;;;8.80;4.82;;;8.80;97.30;;;;;;5061223;28;20114;-56
2022/02/13 12:23:08;;;;;;;11.07;4.68;;;9.00;96.40;;;;;;5057826;28;20044;-59
2022/02/13 12:25:35;;;;;;;10.18;5.65;;;9.00;95.20;;;;;;5054077;28;20574;-55
2022/02/13 12:28:02;;;;;;;11.48;5.28;;;9.00;95.50;;;;;;5054860;28;20032;-59
2022/02/13 12:30:28;;;;;;;10.70;5.05;;;9.40;96.40;;;;;;5057642;28;20021;-58
2022/02/13 12:32:58;;;;;;;10.10;4.70;;;10.30;92.10;;;;;;5025390;28;20383;-57
2022/02/13 12:35:29;;;;;;;13.07;5.20;;;10.20;90.50;;;;;;5060056;28;20043;-58
2022/02/13 12:37:56;;;;;;;10.80;5.25;;;9.80;90.00;;;;;;5066238;28;20078;-53
2022/02/13 12:40:44;;;;;;;10.13;5.38;;;9.90;91.30;;;;;;5065118;28;20081;-58
2022/02/13 12:43:22;;;;;;;10.10;5.32;;;9.50;90.20;;;;;;5069684;28;20024;-56
2022/02/13 12:45:52;;;;;;;18.02;7.38;;;9.20;93.00;;;;;;5053588;28;20565;-55
2022/02/13 12:48:21;;;;;;;12.15;5.68;;;9.10;93.40;;;;;;5049761;28;20021;-56
2022/02/13 12:50:52;;;;;;;10.60;5.32;;;8.70;93.70;;;;;;5049130;28;20087;-55
2022/02/13 12:53:27;;;;;;;10.30;4.90;;;8.60;95.10;;;;;;5062719;28;20385;-55